sensor_id;sensor_type;location;lat;lon;timestamp;P1;durP1;ratioP1;P2;durP2;ratioP2
74967;SDS011;63523;51.880;12.630;2023-03-18T00:02:05;13.85;;;6.32;;
74967;SDS011;63523;51.880;12.630;2023-03-18T00:04:32;16.33;;;6.83;;
74967;SDS011;63523;51.880;12.630;2023-03-18T00:06:57;16.60;;;7.32;;
74967;SDS011;63523;51.880;12.630;2023-03-18T00:09:23;14.43;;;6.93;;
74967;SDS011;63523;51.880;12.630;2023-03-18T00:11:49;15.73;;;7.20;;
74967;SDS011;63523;51.880;12.630;2023-03-18T00:14:15;16.20;;;6.60;;
74967;SDS011;63523;51.880;12.630;2023-03-18T00:16:40;15.50;;;6.73;;
74967;SDS011;63523;51.880;12.630;2023-03-18T00:19:06;16.40;;;6.97;;
74967;SDS011;63523;51.880;12.630;2023-03-18T00:21:32;14.20;;;6.47;;
74967;SDS011;63523;51.880;12.630;2023-03-18T00:23:58;14.63;;;6.63;;
74967;SDS011;63523;51.880;12.630;2023-03-18T00:26:25;16.05;;;7.30;;
74967;SDS011;63523;51.880;12.630;2023-03-18T00:28:53;14.80;;;6.60;;
74967;SDS011;63523;51.880;12.630;2023-03-18T00:31:19;14.73;;;6.00;;
74967;SDS011;63523;51.880;12.630;2023-03-18T00:33:45;15.20;;;6.43;;
74967;SDS011;63523;51.880;12.630;2023-03-18T00:36:12;14.73;;;6.63;;
74967;SDS011;63523;51.880;12.630;2023-03-18T00:38:38;15.80;;;6.65;;
74967;SDS011;63523;51.880;12.630;2023-03-18T00:41:06;14.00;;;6.80;;
74967;SDS011;63523;51.880;12.630;2023-03-18T00:43:46;13.27;;;5.97;;
74967;SDS011;63523;51.880;12.630;2023-03-18T00:46:23;16.95;;;6.85;;
74967;SDS011;63523;51.880;12.630;2023-03-18T00:48:50;15.07;;;6.30;;
74967;SDS011;63523;51.880;12.630;2023-03-18T00:51:18;16.27;;;6.88;;
74967;SDS011;63523;51.880;12.630;2023-03-18T00:53:46;13.93;;;6.67;;
74967;SDS011;63523;51.880;12.630;2023-03-18T00:56:14;15.07;;;6.63;;
74967;SDS011;63523;51.880;12.630;2023-03-18T00:58:40;14.65;;;6.50;;
74967;SDS011;63523;51.880;12.630;2023-03-18T01:01:06;14.37;;;6.13;;
74967;SDS011;63523;51.880;12.630;2023-03-18T01:03:33;13.50;;;6.40;;
74967;SDS011;63523;51.880;12.630;2023-03-18T01:06:00;14.75;;;6.40;;
74967;SDS011;63523;51.880;12.630;2023-03-18T01:08:26;14.52;;;6.38;;
74967;SDS011;63523;51.880;12.630;2023-03-18T01:10:54;13.57;;;6.03;;
74967;SDS011;63523;51.880;12.630;2023-03-18T01:13:20;15.73;;;6.70;;
74967;SDS011;63523;51.880;12.630;2023-03-18T01:15:46;14.45;;;6.30;;
74967;SDS011;63523;51.880;12.630;2023-03-18T01:18:12;13.43;;;6.50;;
74967;SDS011;63523;51.880;12.630;2023-03-18T01:20:38;12.68;;;6.55;;
74967;SDS011;63523;51.880;12.630;2023-03-18T01:23:04;15.45;;;6.13;;
74967;SDS011;63523;51.880;12.630;2023-03-18T01:25:30;13.27;;;6.23;;
74967;SDS011;63523;51.880;12.630;2023-03-18T01:27:56;13.02;;;5.68;;
74967;SDS011;63523;51.880;12.630;2023-03-18T01:30:22;13.32;;;6.20;;
74967;SDS011;63523;51.880;12.630;2023-03-18T01:32:48;12.20;;;5.50;;
74967;SDS011;63523;51.880;12.630;2023-03-18T01:35:14;12.10;;;5.80;;
74967;SDS011;63523;51.880;12.630;2023-03-18T01:37:39;12.45;;;5.53;;
74967;SDS011;63523;51.880;12.630;2023-03-18T01:40:06;13.03;;;5.70;;
74967;SDS011;63523;51.880;12.630;2023-03-18T01:42:33;13.80;;;5.30;;
74967;SDS011;63523;51.880;12.630;2023-03-18T01:47:43;13.98;;;5.47;;
74967;SDS011;63523;51.880;12.630;2023-03-18T01:50:11;13.53;;;5.90;;
74967;SDS011;63523;51.880;12.630;2023-03-18T01:52:38;12.85;;;6.18;;
74967;SDS011;63523;51.880;12.630;2023-03-18T01:55:07;12.35;;;5.57;;
74967;SDS011;63523;51.880;12.630;2023-03-18T01:57:36;14.02;;;5.80;;
74967;SDS011;63523;51.880;12.630;2023-03-18T02:00:03;14.53;;;5.63;;
74967;SDS011;63523;51.880;12.630;2023-03-18T02:02:30;14.10;;;6.05;;
74967;SDS011;63523;51.880;12.630;2023-03-18T02:04:58;12.88;;;5.63;;
74967;SDS011;63523;51.880;12.630;2023-03-18T02:07:28;13.82;;;6.00;;
74967;SDS011;63523;51.880;12.630;2023-03-18T02:09:56;13.10;;;5.47;;
74967;SDS011;63523;51.880;12.630;2023-03-18T02:12:24;12.30;;;5.30;;
74967;SDS011;63523;51.880;12.630;2023-03-18T02:14:56;11.63;;;5.00;;
74967;SDS011;63523;51.880;12.630;2023-03-18T02:17:24;14.77;;;5.35;;
74967;SDS011;63523;51.880;12.630;2023-03-18T02:22:31;11.40;;;4.97;;
74967;SDS011;63523;51.880;12.630;2023-03-18T02:27:52;13.90;;;5.05;;
74967;SDS011;63523;51.880;12.630;2023-03-18T02:30:25;11.77;;;4.82;;
74967;SDS011;63523;51.880;12.630;2023-03-18T02:32:55;11.63;;;5.10;;
74967;SDS011;63523;51.880;12.630;2023-03-18T02:35:23;10.70;;;4.90;;
74967;SDS011;63523;51.880;12.630;2023-03-18T02:37:50;11.23;;;4.80;;
74967;SDS011;63523;51.880;12.630;2023-03-18T02:40:23;11.38;;;4.35;;
74967;SDS011;63523;51.880;12.630;2023-03-18T02:42:51;10.40;;;4.77;;
74967;SDS011;63523;51.880;12.630;2023-03-18T02:48:10;11.57;;;4.60;;
74967;SDS011;63523;51.880;12.630;2023-03-18T02:50:41;12.63;;;5.00;;
74967;SDS011;63523;51.880;12.630;2023-03-18T02:53:09;12.10;;;4.72;;
74967;SDS011;63523;51.880;12.630;2023-03-18T02:55:36;13.98;;;5.43;;
74967;SDS011;63523;51.880;12.630;2023-03-18T02:58:01;14.83;;;5.40;;
74967;SDS011;63523;51.880;12.630;2023-03-18T03:00:27;11.73;;;5.07;;
74967;SDS011;63523;51.880;12.630;2023-03-18T03:02:53;12.70;;;4.97;;
74967;SDS011;63523;51.880;12.630;2023-03-18T03:05:18;12.33;;;4.93;;
74967;SDS011;63523;51.880;12.630;2023-03-18T03:07:44;11.30;;;4.28;;
74967;SDS011;63523;51.880;12.630;2023-03-18T03:10:10;12.40;;;4.70;;
74967;SDS011;63523;51.880;12.630;2023-03-18T03:12:37;10.23;;;4.70;;
74967;SDS011;63523;51.880;12.630;2023-03-18T03:15:03;12.17;;;4.70;;
74967;SDS011;63523;51.880;12.630;2023-03-18T03:17:30;10.57;;;4.38;;
74967;SDS011;63523;51.880;12.630;2023-03-18T03:19:58;10.35;;;4.68;;
74967;SDS011;63523;51.880;12.630;2023-03-18T03:22:24;11.00;;;4.80;;
74967;SDS011;63523;51.880;12.630;2023-03-18T03:24:49;11.93;;;5.03;;
74967;SDS011;63523;51.880;12.630;2023-03-18T03:27:15;12.90;;;4.43;;
74967;SDS011;63523;51.880;12.630;2023-03-18T03:29:40;11.50;;;5.10;;
74967;SDS011;63523;51.880;12.630;2023-03-18T03:32:07;12.20;;;4.57;;
74967;SDS011;63523;51.880;12.630;2023-03-18T03:34:33;11.63;;;4.77;;
74967;SDS011;63523;51.880;12.630;2023-03-18T03:36:59;13.17;;;5.03;;
74967;SDS011;63523;51.880;12.630;2023-03-18T03:39:25;12.68;;;5.20;;
74967;SDS011;63523;51.880;12.630;2023-03-18T03:41:51;11.43;;;5.05;;
74967;SDS011;63523;51.880;12.630;2023-03-18T03:44:17;11.07;;;4.33;;
74967;SDS011;63523;51.880;12.630;2023-03-18T03:46:43;12.75;;;4.80;;
74967;SDS011;63523;51.880;12.630;2023-03-18T03:49:09;10.48;;;4.47;;
74967;SDS011;63523;51.880;12.630;2023-03-18T03:51:35;11.73;;;4.53;;
74967;SDS011;63523;51.880;12.630;2023-03-18T03:54:01;12.73;;;4.37;;
74967;SDS011;63523;51.880;12.630;2023-03-18T03:56:27;10.13;;;4.30;;
74967;SDS011;63523;51.880;12.630;2023-03-18T03:58:53;10.63;;;4.50;;
74967;SDS011;63523;51.880;12.630;2023-03-18T04:01:18;10.27;;;4.53;;
74967;SDS011;63523;51.880;12.630;2023-03-18T04:03:44;10.97;;;4.47;;
74967;SDS011;63523;51.880;12.630;2023-03-18T04:06:09;11.70;;;5.00;;
74967;SDS011;63523;51.880;12.630;2023-03-18T04:08:35;10.37;;;4.33;;
74967;SDS011;63523;51.880;12.630;2023-03-18T04:11:01;11.40;;;4.37;;
74967;SDS011;63523;51.880;12.630;2023-03-18T04:13:28;12.02;;;4.60;;
74967;SDS011;63523;51.880;12.630;2023-03-18T04:15:54;9.65;;;4.45;;
74967;SDS011;63523;51.880;12.630;2023-03-18T04:18:19;11.77;;;4.53;;
74967;SDS011;63523;51.880;12.630;2023-03-18T04:20:45;11.20;;;3.92;;
74967;SDS011;63523;51.880;12.630;2023-03-18T04:23:11;11.35;;;4.88;;
74967;SDS011;63523;51.880;12.630;2023-03-18T04:25:38;11.60;;;4.47;;
74967;SDS011;63523;51.880;12.630;2023-03-18T04:28:04;10.10;;;4.45;;
74967;SDS011;63523;51.880;12.630;2023-03-18T04:30:29;10.30;;;4.00;;
74967;SDS011;63523;51.880;12.630;2023-03-18T04:32:56;11.60;;;4.68;;
74967;SDS011;63523;51.880;12.630;2023-03-18T04:35:21;11.70;;;4.30;;
74967;SDS011;63523;51.880;12.630;2023-03-18T04:37:47;13.00;;;4.53;;
74967;SDS011;63523;51.880;12.630;2023-03-18T04:40:13;10.18;;;4.55;;
74967;SDS011;63523;51.880;12.630;2023-03-18T04:42:38;11.77;;;4.80;;
74967;SDS011;63523;51.880;12.630;2023-03-18T04:45:04;9.95;;;4.00;;
74967;SDS011;63523;51.880;12.630;2023-03-18T04:47:31;9.93;;;4.05;;
74967;SDS011;63523;51.880;12.630;2023-03-18T04:49:58;10.57;;;4.37;;
74967;SDS011;63523;51.880;12.630;2023-03-18T04:52:24;10.95;;;4.20;;
74967;SDS011;63523;51.880;12.630;2023-03-18T04:54:50;9.43;;;4.22;;
74967;SDS011;63523;51.880;12.630;2023-03-18T04:57:15;10.63;;;4.40;;
74967;SDS011;63523;51.880;12.630;2023-03-18T04:59:42;10.98;;;4.55;;
74967;SDS011;63523;51.880;12.630;2023-03-18T05:02:09;9.98;;;4.38;;
74967;SDS011;63523;51.880;12.630;2023-03-18T05:04:35;10.80;;;4.20;;
74967;SDS011;63523;51.880;12.630;2023-03-18T05:07:02;10.68;;;4.18;;
74967;SDS011;63523;51.880;12.630;2023-03-18T05:09:28;11.10;;;4.50;;
74967;SDS011;63523;51.880;12.630;2023-03-18T05:11:54;13.83;;;5.23;;
74967;SDS011;63523;51.880;12.630;2023-03-18T05:14:19;10.20;;;4.17;;
74967;SDS011;63523;51.880;12.630;2023-03-18T05:16:45;11.02;;;4.68;;
74967;SDS011;63523;51.880;12.630;2023-03-18T05:19:11;11.90;;;4.70;;
74967;SDS011;63523;51.880;12.630;2023-03-18T05:21:36;11.60;;;5.28;;
74967;SDS011;63523;51.880;12.630;2023-03-18T05:24:03;11.48;;;4.50;;
74967;SDS011;63523;51.880;12.630;2023-03-18T05:26:29;10.20;;;4.50;;
74967;SDS011;63523;51.880;12.630;2023-03-18T05:28:57;11.57;;;4.90;;
74967;SDS011;63523;51.880;12.630;2023-03-18T05:31:23;12.23;;;4.47;;
74967;SDS011;63523;51.880;12.630;2023-03-18T05:33:49;11.40;;;5.05;;
74967;SDS011;63523;51.880;12.630;2023-03-18T05:36:15;12.07;;;4.90;;
74967;SDS011;63523;51.880;12.630;2023-03-18T05:38:40;10.47;;;3.90;;
74967;SDS011;63523;51.880;12.630;2023-03-18T05:41:06;11.50;;;4.70;;
74967;SDS011;63523;51.880;12.630;2023-03-18T05:43:32;9.25;;;3.90;;
74967;SDS011;63523;51.880;12.630;2023-03-18T05:45:57;9.93;;;4.57;;
74967;SDS011;63523;51.880;12.630;2023-03-18T05:48:23;11.68;;;4.20;;
74967;SDS011;63523;51.880;12.630;2023-03-18T05:50:49;10.07;;;4.18;;
74967;SDS011;63523;51.880;12.630;2023-03-18T05:53:15;10.13;;;4.67;;
74967;SDS011;63523;51.880;12.630;2023-03-18T05:55:42;10.10;;;4.45;;
74967;SDS011;63523;51.880;12.630;2023-03-18T05:58:08;12.27;;;5.05;;
74967;SDS011;63523;51.880;12.630;2023-03-18T06:00:34;11.90;;;4.40;;
74967;SDS011;63523;51.880;12.630;2023-03-18T06:03:00;9.15;;;3.83;;
74967;SDS011;63523;51.880;12.630;2023-03-18T06:05:26;13.27;;;5.00;;
74967;SDS011;63523;51.880;12.630;2023-03-18T06:07:52;11.27;;;4.80;;
74967;SDS011;63523;51.880;12.630;2023-03-18T06:10:19;13.57;;;5.03;;
74967;SDS011;63523;51.880;12.630;2023-03-18T06:12:46;10.53;;;4.67;;
74967;SDS011;63523;51.880;12.630;2023-03-18T06:15:13;22.77;;;6.80;;
74967;SDS011;63523;51.880;12.630;2023-03-18T06:17:39;9.85;;;4.28;;
74967;SDS011;63523;51.880;12.630;2023-03-18T06:20:06;10.73;;;4.88;;
74967;SDS011;63523;51.880;12.630;2023-03-18T06:22:33;11.50;;;4.60;;
74967;SDS011;63523;51.880;12.630;2023-03-18T06:24:59;12.20;;;4.70;;
74967;SDS011;63523;51.880;12.630;2023-03-18T06:27:26;12.48;;;5.07;;
74967;SDS011;63523;51.880;12.630;2023-03-18T06:29:52;10.15;;;4.55;;
74967;SDS011;63523;51.880;12.630;2023-03-18T06:32:18;11.47;;;4.53;;
74967;SDS011;63523;51.880;12.630;2023-03-18T06:34:43;10.57;;;4.32;;
74967;SDS011;63523;51.880;12.630;2023-03-18T06:37:09;10.43;;;4.47;;
74967;SDS011;63523;51.880;12.630;2023-03-18T06:39:35;12.18;;;5.00;;
74967;SDS011;63523;51.880;12.630;2023-03-18T06:42:00;9.23;;;4.60;;
74967;SDS011;63523;51.880;12.630;2023-03-18T06:44:26;13.03;;;5.03;;
74967;SDS011;63523;51.880;12.630;2023-03-18T06:46:51;12.23;;;4.55;;
74967;SDS011;63523;51.880;12.630;2023-03-18T06:49:17;12.10;;;4.97;;
74967;SDS011;63523;51.880;12.630;2023-03-18T06:51:43;12.15;;;4.65;;
74967;SDS011;63523;51.880;12.630;2023-03-18T06:54:09;11.88;;;4.93;;
74967;SDS011;63523;51.880;12.630;2023-03-18T06:56:35;11.13;;;4.60;;
74967;SDS011;63523;51.880;12.630;2023-03-18T06:59:05;10.93;;;4.45;;
74967;SDS011;63523;51.880;12.630;2023-03-18T07:01:32;12.50;;;4.93;;
74967;SDS011;63523;51.880;12.630;2023-03-18T07:03:58;10.80;;;5.07;;
74967;SDS011;63523;51.880;12.630;2023-03-18T07:06:28;12.70;;;4.80;;
74967;SDS011;63523;51.880;12.630;2023-03-18T07:08:55;12.43;;;4.93;;
74967;SDS011;63523;51.880;12.630;2023-03-18T07:11:20;9.75;;;3.90;;
74967;SDS011;63523;51.880;12.630;2023-03-18T07:13:46;13.03;;;4.83;;
74967;SDS011;63523;51.880;12.630;2023-03-18T07:16:12;9.65;;;4.20;;
74967;SDS011;63523;51.880;12.630;2023-03-18T07:18:37;9.90;;;4.63;;
74967;SDS011;63523;51.880;12.630;2023-03-18T07:21:03;10.30;;;4.47;;
74967;SDS011;63523;51.880;12.630;2023-03-18T07:23:29;11.80;;;4.33;;
74967;SDS011;63523;51.880;12.630;2023-03-18T07:25:55;10.10;;;4.93;;
74967;SDS011;63523;51.880;12.630;2023-03-18T07:28:21;11.25;;;4.57;;
74967;SDS011;63523;51.880;12.630;2023-03-18T07:30:46;12.33;;;4.80;;
74967;SDS011;63523;51.880;12.630;2023-03-18T07:33:12;10.57;;;4.80;;
74967;SDS011;63523;51.880;12.630;2023-03-18T07:35:38;11.05;;;4.88;;
74967;SDS011;63523;51.880;12.630;2023-03-18T07:38:06;11.43;;;5.10;;
74967;SDS011;63523;51.880;12.630;2023-03-18T07:40:32;9.33;;;4.23;;
74967;SDS011;63523;51.880;12.630;2023-03-18T07:42:58;12.27;;;5.20;;
74967;SDS011;63523;51.880;12.630;2023-03-18T07:45:24;10.95;;;4.90;;
74967;SDS011;63523;51.880;12.630;2023-03-18T07:47:50;11.80;;;5.20;;
74967;SDS011;63523;51.880;12.630;2023-03-18T07:50:15;10.93;;;5.33;;
74967;SDS011;63523;51.880;12.630;2023-03-18T07:52:42;11.77;;;5.30;;
74967;SDS011;63523;51.880;12.630;2023-03-18T07:55:08;11.25;;;5.57;;
74967;SDS011;63523;51.880;12.630;2023-03-18T07:57:36;15.75;;;5.25;;
74967;SDS011;63523;51.880;12.630;2023-03-18T08:00:05;12.25;;;5.72;;
74967;SDS011;63523;51.880;12.630;2023-03-18T08:02:32;13.63;;;5.67;;
74967;SDS011;63523;51.880;12.630;2023-03-18T08:04:58;13.50;;;6.13;;
74967;SDS011;63523;51.880;12.630;2023-03-18T08:07:24;14.05;;;6.32;;
74967;SDS011;63523;51.880;12.630;2023-03-18T08:09:49;12.47;;;5.63;;
74967;SDS011;63523;51.880;12.630;2023-03-18T08:12:15;14.00;;;5.40;;
74967;SDS011;63523;51.880;12.630;2023-03-18T08:14:41;11.80;;;5.05;;
74967;SDS011;63523;51.880;12.630;2023-03-18T08:17:07;15.23;;;7.30;;
74967;SDS011;63523;51.880;12.630;2023-03-18T08:19:33;10.02;;;4.82;;
74967;SDS011;63523;51.880;12.630;2023-03-18T08:21:59;10.60;;;5.20;;
74967;SDS011;63523;51.880;12.630;2023-03-18T08:24:25;12.43;;;5.28;;
74967;SDS011;63523;51.880;12.630;2023-03-18T08:26:51;10.82;;;4.97;;
74967;SDS011;63523;51.880;12.630;2023-03-18T08:29:17;9.30;;;4.43;;
74967;SDS011;63523;51.880;12.630;2023-03-18T08:31:43;9.85;;;4.60;;
74967;SDS011;63523;51.880;12.630;2023-03-18T08:34:08;10.00;;;4.30;;
74967;SDS011;63523;51.880;12.630;2023-03-18T08:36:34;9.70;;;4.47;;
74967;SDS011;63523;51.880;12.630;2023-03-18T08:39:01;11.05;;;4.97;;
74967;SDS011;63523;51.880;12.630;2023-03-18T08:41:26;14.00;;;4.65;;
74967;SDS011;63523;51.880;12.630;2023-03-18T08:43:52;12.60;;;5.27;;
74967;SDS011;63523;51.880;12.630;2023-03-18T08:46:21;10.63;;;4.78;;
74967;SDS011;63523;51.880;12.630;2023-03-18T08:48:47;9.25;;;4.63;;
74967;SDS011;63523;51.880;12.630;2023-03-18T08:51:12;10.03;;;4.57;;
74967;SDS011;63523;51.880;12.630;2023-03-18T08:53:38;12.75;;;4.95;;
74967;SDS011;63523;51.880;12.630;2023-03-18T08:56:04;12.07;;;4.83;;
74967;SDS011;63523;51.880;12.630;2023-03-18T08:58:32;9.48;;;4.55;;
74967;SDS011;63523;51.880;12.630;2023-03-18T09:00:58;11.05;;;4.85;;
74967;SDS011;63523;51.880;12.630;2023-03-18T09:03:27;8.93;;;4.25;;
74967;SDS011;63523;51.880;12.630;2023-03-18T09:05:52;12.67;;;4.30;;
74967;SDS011;63523;51.880;12.630;2023-03-18T09:08:19;8.88;;;4.60;;
74967;SDS011;63523;51.880;12.630;2023-03-18T09:10:46;13.10;;;5.32;;
74967;SDS011;63523;51.880;12.630;2023-03-18T09:13:12;13.03;;;4.70;;
74967;SDS011;63523;51.880;12.630;2023-03-18T09:15:37;10.05;;;4.30;;
74967;SDS011;63523;51.880;12.630;2023-03-18T09:18:03;9.03;;;4.60;;
74967;SDS011;63523;51.880;12.630;2023-03-18T09:20:29;9.43;;;4.32;;
74967;SDS011;63523;51.880;12.630;2023-03-18T09:22:56;9.75;;;4.80;;
74967;SDS011;63523;51.880;12.630;2023-03-18T09:25:23;10.45;;;4.65;;
74967;SDS011;63523;51.880;12.630;2023-03-18T09:27:49;11.60;;;5.20;;
74967;SDS011;63523;51.880;12.630;2023-03-18T09:30:14;10.52;;;5.15;;
74967;SDS011;63523;51.880;12.630;2023-03-18T09:32:40;9.63;;;4.93;;
74967;SDS011;63523;51.880;12.630;2023-03-18T09:35:06;10.13;;;5.22;;
74967;SDS011;63523;51.880;12.630;2023-03-18T09:37:33;8.97;;;4.63;;
74967;SDS011;63523;51.880;12.630;2023-03-18T09:39:59;8.82;;;4.00;;
74967;SDS011;63523;51.880;12.630;2023-03-18T09:45:28;7.90;;;3.33;;
74967;SDS011;63523;51.880;12.630;2023-03-18T09:56:51;6.73;;;2.80;;
74967;SDS011;63523;51.880;12.630;2023-03-18T10:01:53;5.80;;;2.75;;
74967;SDS011;63523;51.880;12.630;2023-03-18T10:04:22;7.78;;;2.80;;
74967;SDS011;63523;51.880;12.630;2023-03-18T10:06:50;6.38;;;2.53;;
74967;SDS011;63523;51.880;12.630;2023-03-18T10:09:26;5.87;;;2.13;;
74967;SDS011;63523;51.880;12.630;2023-03-18T10:12:00;7.38;;;2.50;;
74967;SDS011;63523;51.880;12.630;2023-03-18T10:14:46;6.07;;;2.50;;
74967;SDS011;63523;51.880;12.630;2023-03-18T10:20:02;5.93;;;2.35;;
74967;SDS011;63523;51.880;12.630;2023-03-18T10:22:56;6.50;;;2.03;;
74967;SDS011;63523;51.880;12.630;2023-03-18T10:25:25;7.22;;;2.15;;
74967;SDS011;63523;51.880;12.630;2023-03-18T10:31:13;8.00;;;2.50;;
74967;SDS011;63523;51.880;12.630;2023-03-18T10:34:00;5.45;;;1.92;;
74967;SDS011;63523;51.880;12.630;2023-03-18T10:39:19;8.57;;;2.45;;
74967;SDS011;63523;51.880;12.630;2023-03-18T10:41:49;6.97;;;2.90;;
74967;SDS011;63523;51.880;12.630;2023-03-18T10:44:25;8.95;;;2.88;;
74967;SDS011;63523;51.880;12.630;2023-03-18T10:47:08;7.03;;;2.58;;
74967;SDS011;63523;51.880;12.630;2023-03-18T10:49:45;7.43;;;3.10;;
74967;SDS011;63523;51.880;12.630;2023-03-18T10:52:38;7.50;;;2.92;;
74967;SDS011;63523;51.880;12.630;2023-03-18T10:55:15;7.60;;;3.95;;
74967;SDS011;63523;51.880;12.630;2023-03-18T10:57:42;8.20;;;2.30;;
74967;SDS011;63523;51.880;12.630;2023-03-18T11:00:29;5.83;;;2.13;;
74967;SDS011;63523;51.880;12.630;2023-03-18T11:02:56;7.38;;;2.42;;
74967;SDS011;63523;51.880;12.630;2023-03-18T11:05:35;5.93;;;2.20;;
74967;SDS011;63523;51.880;12.630;2023-03-18T11:08:02;6.22;;;2.03;;
74967;SDS011;63523;51.880;12.630;2023-03-18T11:10:51;6.28;;;2.20;;
74967;SDS011;63523;51.880;12.630;2023-03-18T11:13:16;6.97;;;2.53;;
74967;SDS011;63523;51.880;12.630;2023-03-18T11:15:45;6.03;;;2.47;;
74967;SDS011;63523;51.880;12.630;2023-03-18T11:18:14;6.60;;;2.60;;
74967;SDS011;63523;51.880;12.630;2023-03-18T11:20:42;8.57;;;2.70;;
74967;SDS011;63523;51.880;12.630;2023-03-18T11:26:20;5.93;;;2.37;;
74967;SDS011;63523;51.880;12.630;2023-03-18T11:28:46;5.82;;;2.60;;
74967;SDS011;63523;51.880;12.630;2023-03-18T11:31:15;4.93;;;1.70;;
74967;SDS011;63523;51.880;12.630;2023-03-18T11:33:45;5.60;;;2.23;;
74967;SDS011;63523;51.880;12.630;2023-03-18T11:36:12;6.07;;;2.22;;
74967;SDS011;63523;51.880;12.630;2023-03-18T11:38:56;8.17;;;2.87;;
74967;SDS011;63523;51.880;12.630;2023-03-18T11:41:26;6.60;;;2.65;;
74967;SDS011;63523;51.880;12.630;2023-03-18T11:46:25;6.63;;;2.33;;
74967;SDS011;63523;51.880;12.630;2023-03-18T11:48:54;7.10;;;2.70;;
74967;SDS011;63523;51.880;12.630;2023-03-18T11:51:41;6.90;;;2.57;;
74967;SDS011;63523;51.880;12.630;2023-03-18T11:54:28;6.40;;;2.53;;
74967;SDS011;63523;51.880;12.630;2023-03-18T12:02:55;8.07;;;2.63;;
74967;SDS011;63523;51.880;12.630;2023-03-18T12:16:54;8.57;;;3.20;;
74967;SDS011;63523;51.880;12.630;2023-03-18T12:31:27;5.47;;;2.38;;
74967;SDS011;63523;51.880;12.630;2023-03-18T12:34:06;7.97;;;2.67;;
74967;SDS011;63523;51.880;12.630;2023-03-18T12:42:10;5.45;;;2.33;;
74967;SDS011;63523;51.880;12.630;2023-03-18T12:45:08;6.13;;;2.70;;
74967;SDS011;63523;51.880;12.630;2023-03-18T12:47:47;7.70;;;3.40;;
74967;SDS011;63523;51.880;12.630;2023-03-18T12:53:02;7.95;;;2.75;;
74967;SDS011;63523;51.880;12.630;2023-03-18T12:55:53;6.47;;;2.83;;
74967;SDS011;63523;51.880;12.630;2023-03-18T13:01:15;7.77;;;3.30;;
74967;SDS011;63523;51.880;12.630;2023-03-18T13:03:47;5.50;;;2.50;;
74967;SDS011;63523;51.880;12.630;2023-03-18T13:06:26;9.50;;;3.20;;
74967;SDS011;63523;51.880;12.630;2023-03-18T13:17:24;6.50;;;2.75;;
74967;SDS011;63523;51.880;12.630;2023-03-18T13:19:56;9.25;;;3.20;;
74967;SDS011;63523;51.880;12.630;2023-03-18T13:33:21;6.55;;;2.80;;
74967;SDS011;63523;51.880;12.630;2023-03-18T13:41:31;6.40;;;2.60;;
74967;SDS011;63523;51.880;12.630;2023-03-18T13:44:09;6.75;;;2.75;;
74967;SDS011;63523;51.880;12.630;2023-03-18T13:46:41;8.40;;;2.65;;
74967;SDS011;63523;51.880;12.630;2023-03-18T13:49:25;5.75;;;2.50;;
74967;SDS011;63523;51.880;12.630;2023-03-18T13:51:57;7.00;;;2.65;;
74967;SDS011;63523;51.880;12.630;2023-03-18T13:54:29;5.60;;;2.20;;
74967;SDS011;63523;51.880;12.630;2023-03-18T13:59:51;6.30;;;2.47;;
74967;SDS011;63523;51.880;12.630;2023-03-18T14:05:08;5.67;;;2.40;;
74967;SDS011;63523;51.880;12.630;2023-03-18T14:07:57;7.80;;;2.53;;
74967;SDS011;63523;51.880;12.630;2023-03-18T14:10:23;6.32;;;2.28;;
74967;SDS011;63523;51.880;12.630;2023-03-18T14:12:49;7.30;;;2.80;;
74967;SDS011;63523;51.880;12.630;2023-03-18T14:22:39;8.60;;;2.90;;
74967;SDS011;63523;51.880;12.630;2023-03-18T14:25:18;7.97;;;2.67;;
74967;SDS011;63523;51.880;12.630;2023-03-18T14:36:08;5.80;;;2.83;;
74967;SDS011;63523;51.880;12.630;2023-03-18T14:41:17;5.30;;;2.85;;
74967;SDS011;63523;51.880;12.630;2023-03-18T14:44:06;6.07;;;2.60;;
74967;SDS011;63523;51.880;12.630;2023-03-18T14:46:41;7.03;;;2.67;;
74967;SDS011;63523;51.880;12.630;2023-03-18T14:52:00;5.45;;;2.42;;
74967;SDS011;63523;51.880;12.630;2023-03-18T14:54:29;7.45;;;2.50;;
74967;SDS011;63523;51.880;12.630;2023-03-18T14:57:01;7.13;;;2.40;;
74967;SDS011;63523;51.880;12.630;2023-03-18T14:59:28;5.28;;;2.30;;
74967;SDS011;63523;51.880;12.630;2023-03-18T15:01:53;5.40;;;2.23;;
74967;SDS011;63523;51.880;12.630;2023-03-18T15:04:21;6.43;;;2.30;;
74967;SDS011;63523;51.880;12.630;2023-03-18T15:06:49;4.37;;;2.07;;
74967;SDS011;63523;51.880;12.630;2023-03-18T15:09:26;5.30;;;2.33;;
74967;SDS011;63523;51.880;12.630;2023-03-18T15:11:55;7.57;;;2.28;;
74967;SDS011;63523;51.880;12.630;2023-03-18T15:14:23;6.47;;;1.88;;
74967;SDS011;63523;51.880;12.630;2023-03-18T15:16:51;6.00;;;1.70;;
74967;SDS011;63523;51.880;12.630;2023-03-18T15:19:18;7.70;;;3.00;;
74967;SDS011;63523;51.880;12.630;2023-03-18T15:21:45;8.35;;;2.63;;
74967;SDS011;63523;51.880;12.630;2023-03-18T15:24:12;7.75;;;2.38;;
74967;SDS011;63523;51.880;12.630;2023-03-18T15:26:43;5.13;;;1.85;;
74967;SDS011;63523;51.880;12.630;2023-03-18T15:29:28;5.03;;;1.70;;
74967;SDS011;63523;51.880;12.630;2023-03-18T15:34:45;6.60;;;1.80;;
74967;SDS011;63523;51.880;12.630;2023-03-18T15:39:55;5.55;;;1.70;;
74967;SDS011;63523;51.880;12.630;2023-03-18T15:42:23;7.03;;;1.67;;
74967;SDS011;63523;51.880;12.630;2023-03-18T15:44:58;5.90;;;1.80;;
74967;SDS011;63523;51.880;12.630;2023-03-18T15:47:29;4.20;;;1.60;;
74967;SDS011;63523;51.880;12.630;2023-03-18T15:49:57;4.85;;;1.70;;
74967;SDS011;63523;51.880;12.630;2023-03-18T15:52:31;4.95;;;1.67;;
74967;SDS011;63523;51.880;12.630;2023-03-18T15:55:19;6.20;;;1.37;;
74967;SDS011;63523;51.880;12.630;2023-03-18T15:57:54;7.40;;;2.00;;
74967;SDS011;63523;51.880;12.630;2023-03-18T16:00:21;5.03;;;1.60;;
74967;SDS011;63523;51.880;12.630;2023-03-18T16:02:47;5.87;;;2.47;;
74967;SDS011;63523;51.880;12.630;2023-03-18T16:05:16;5.47;;;2.10;;
74967;SDS011;63523;51.880;12.630;2023-03-18T16:07:42;5.68;;;1.77;;
74967;SDS011;63523;51.880;12.630;2023-03-18T16:10:07;5.40;;;1.37;;
74967;SDS011;63523;51.880;12.630;2023-03-18T16:12:34;6.07;;;1.50;;
74967;SDS011;63523;51.880;12.630;2023-03-18T16:15:02;4.80;;;1.67;;
74967;SDS011;63523;51.880;12.630;2023-03-18T16:17:29;8.10;;;1.98;;
74967;SDS011;63523;51.880;12.630;2023-03-18T16:19:57;6.78;;;2.28;;
74967;SDS011;63523;51.880;12.630;2023-03-18T16:22:28;5.53;;;1.80;;
74967;SDS011;63523;51.880;12.630;2023-03-18T16:24:53;6.22;;;2.20;;
74967;SDS011;63523;51.880;12.630;2023-03-18T16:27:35;5.90;;;1.90;;
74967;SDS011;63523;51.880;12.630;2023-03-18T16:30:06;7.63;;;2.20;;
74967;SDS011;63523;51.880;12.630;2023-03-18T16:32:42;6.60;;;2.95;;
74967;SDS011;63523;51.880;12.630;2023-03-18T16:35:11;7.45;;;3.13;;
74967;SDS011;63523;51.880;12.630;2023-03-18T16:37:39;8.70;;;3.00;;
74967;SDS011;63523;51.880;12.630;2023-03-18T16:40:12;10.70;;;3.70;;
74967;SDS011;63523;51.880;12.630;2023-03-18T16:42:41;8.93;;;3.55;;
74967;SDS011;63523;51.880;12.630;2023-03-18T16:45:12;8.20;;;2.90;;
74967;SDS011;63523;51.880;12.630;2023-03-18T16:47:46;8.48;;;3.03;;
74967;SDS011;63523;51.880;12.630;2023-03-18T16:50:17;7.77;;;3.00;;
74967;SDS011;63523;51.880;12.630;2023-03-18T16:52:47;10.77;;;3.30;;